sensor_id;sensor_type;location;lat;lon;timestamp;pressure;altitude;pressure_sealevel;temperature;humidity
74958;BME280;63741;42.624;26.276;2023-05-07T00:02:14;99968.13;;;13.75;63.82
74958;BME280;63741;42.624;26.276;2023-05-07T00:04:41;99968.88;;;13.87;63.63
74958;BME280;63741;42.624;26.276;2023-05-07T00:07:08;99966.09;;;13.88;63.05
74958;BME280;63741;42.624;26.276;2023-05-07T00:09:35;99961.94;;;13.75;63.25
74958;BME280;63741;42.624;26.276;2023-05-07T00:12:02;99962.88;;;13.85;62.14
74958;BME280;63741;42.624;26.276;2023-05-07T00:14:29;99972.38;;;13.87;62.31
74958;BME280;63741;42.624;26.276;2023-05-07T00:16:56;99967.50;;;13.93;62.07
74958;BME280;63741;42.624;26.276;2023-05-07T00:19:23;99957.09;;;13.80;62.06
74958;BME280;63741;42.624;26.276;2023-05-07T00:21:50;99958.53;;;13.63;61.83
74958;BME280;63741;42.624;26.276;2023-05-07T00:24:17;99962.53;;;13.78;61.95
74958;BME280;63741;42.624;26.276;2023-05-07T00:26:44;99959.91;;;13.88;62.01
74958;BME280;63741;42.624;26.276;2023-05-07T00:29:11;99951.09;;;13.87;59.68
74958;BME280;63741;42.624;26.276;2023-05-07T00:31:38;99953.53;;;13.70;61.09
74958;BME280;63741;42.624;26.276;2023-05-07T00:34:04;99955.00;;;13.83;60.74
74958;BME280;63741;42.624;26.276;2023-05-07T00:36:32;99949.97;;;13.59;60.93
74958;BME280;63741;42.624;26.276;2023-05-07T00:39:00;99954.50;;;13.89;59.42
74958;BME280;63741;42.624;26.276;2023-05-07T00:41:27;99952.84;;;13.98;59.94
74958;BME280;63741;42.624;26.276;2023-05-07T00:43:54;99950.81;;;14.11;58.09
74958;BME280;63741;42.624;26.276;2023-05-07T00:46:21;99948.69;;;14.15;56.28
74958;BME280;63741;42.624;26.276;2023-05-07T00:48:49;99945.34;;;14.13;56.07
74958;BME280;63741;42.624;26.276;2023-05-07T00:51:17;99948.47;;;14.28;56.63
74958;BME280;63741;42.624;26.276;2023-05-07T00:53:45;99932.28;;;14.00;56.32
74958;BME280;63741;42.624;26.276;2023-05-07T00:56:13;99943.53;;;14.13;54.82
74958;BME280;63741;42.624;26.276;2023-05-07T00:58:40;99947.06;;;14.24;55.33
74958;BME280;63741;42.624;26.276;2023-05-07T01:01:07;99951.03;;;14.39;56.25
74958;BME280;63741;42.624;26.276;2023-05-07T01:03:34;99948.06;;;14.32;55.06
74958;BME280;63741;42.624;26.276;2023-05-07T01:06:02;99946.13;;;14.34;56.48
74958;BME280;63741;42.624;26.276;2023-05-07T01:08:30;99956.53;;;14.07;58.34
74958;BME280;63741;42.624;26.276;2023-05-07T01:10:59;99959.59;;;14.02;59.00
74958;BME280;63741;42.624;26.276;2023-05-07T01:13:27;99953.06;;;13.85;60.54
74958;BME280;63741;42.624;26.276;2023-05-07T01:15:54;99947.31;;;13.80;61.26
74958;BME280;63741;42.624;26.276;2023-05-07T01:18:21;99950.81;;;13.81;62.70
74958;BME280;63741;42.624;26.276;2023-05-07T01:20:49;99952.19;;;13.75;63.81
74958;BME280;63741;42.624;26.276;2023-05-07T01:23:16;99949.03;;;13.70;64.63
74958;BME280;63741;42.624;26.276;2023-05-07T01:25:52;99949.19;;;13.69;65.67
74958;BME280;63741;42.624;26.276;2023-05-07T01:28:21;99942.31;;;13.66;65.86
74958;BME280;63741;42.624;26.276;2023-05-07T01:30:55;99939.94;;;13.63;65.50
74958;BME280;63741;42.624;26.276;2023-05-07T01:33:25;99939.44;;;13.79;65.41
74958;BME280;63741;42.624;26.276;2023-05-07T01:35:53;99934.84;;;13.81;65.05
74958;BME280;63741;42.624;26.276;2023-05-07T01:38:21;99941.59;;;13.85;64.91
74958;BME280;63741;42.624;26.276;2023-05-07T01:40:50;99932.84;;;13.73;65.05
74958;BME280;63741;42.624;26.276;2023-05-07T01:43:17;99929.88;;;13.97;64.90
74958;BME280;63741;42.624;26.276;2023-05-07T01:45:44;99930.19;;;14.04;63.55
74958;BME280;63741;42.624;26.276;2023-05-07T01:48:13;99930.41;;;13.91;64.67
74958;BME280;63741;42.624;26.276;2023-05-07T01:50:42;99933.88;;;13.82;63.93
74958;BME280;63741;42.624;26.276;2023-05-07T01:53:09;99929.31;;;13.94;63.77
74958;BME280;63741;42.624;26.276;2023-05-07T01:55:36;99924.91;;;13.83;64.30
74958;BME280;63741;42.624;26.276;2023-05-07T01:58:07;99930.28;;;13.62;64.53
74958;BME280;63741;42.624;26.276;2023-05-07T02:00:34;99935.00;;;13.58;63.95
74958;BME280;63741;42.624;26.276;2023-05-07T02:03:01;99925.59;;;13.33;64.62
74958;BME280;63741;42.624;26.276;2023-05-07T02:05:39;99925.53;;;12.92;65.73
74958;BME280;63741;42.624;26.276;2023-05-07T02:08:13;99927.44;;;12.57;66.62
74958;BME280;63741;42.624;26.276;2023-05-07T02:10:40;99941.22;;;12.51;66.49
74958;BME280;63741;42.624;26.276;2023-05-07T02:13:07;99933.19;;;12.19;66.90
74958;BME280;63741;42.624;26.276;2023-05-07T02:15:34;99941.28;;;12.06;67.75
74958;BME280;63741;42.624;26.276;2023-05-07T02:18:05;99939.91;;;12.46;66.87
74958;BME280;63741;42.624;26.276;2023-05-07T02:20:36;99935.09;;;12.39;66.83
74958;BME280;63741;42.624;26.276;2023-05-07T02:23:03;99933.66;;;12.24;66.74
74958;BME280;63741;42.624;26.276;2023-05-07T02:25:30;99937.13;;;12.36;66.97
74958;BME280;63741;42.624;26.276;2023-05-07T02:27:58;99932.53;;;12.60;66.15
74958;BME280;63741;42.624;26.276;2023-05-07T02:30:40;99934.97;;;12.84;65.65
74958;BME280;63741;42.624;26.276;2023-05-07T02:33:08;99935.88;;;12.74;65.36
74958;BME280;63741;42.624;26.276;2023-05-07T02:35:35;99927.75;;;12.86;65.33
74958;BME280;63741;42.624;26.276;2023-05-07T02:38:02;99924.25;;;13.07;63.93
74958;BME280;63741;42.624;26.276;2023-05-07T02:40:30;99927.75;;;13.07;64.79
74958;BME280;63741;42.624;26.276;2023-05-07T02:43:00;99933.19;;;13.06;65.05
74958;BME280;63741;42.624;26.276;2023-05-07T02:45:27;99922.53;;;12.85;65.63
74958;BME280;63741;42.624;26.276;2023-05-07T02:47:54;99923.88;;;13.11;65.58
74958;BME280;63741;42.624;26.276;2023-05-07T02:50:21;99925.94;;;13.08;65.42
74958;BME280;63741;42.624;26.276;2023-05-07T02:52:48;99932.97;;;13.09;65.79
74958;BME280;63741;42.624;26.276;2023-05-07T02:55:15;99936.25;;;12.69;67.32
74958;BME280;63741;42.624;26.276;2023-05-07T02:57:42;99935.09;;;12.39;67.67
74958;BME280;63741;42.624;26.276;2023-05-07T03:00:19;99934.94;;;12.41;68.26
74958;BME280;63741;42.624;26.276;2023-05-07T03:03:00;99932.53;;;12.60;67.24
74958;BME280;63741;42.624;26.276;2023-05-07T03:05:27;99931.00;;;12.35;68.37
74958;BME280;63741;42.624;26.276;2023-05-07T03:07:53;99938.66;;;12.61;67.31
74958;BME280;63741;42.624;26.276;2023-05-07T03:10:20;99939.63;;;12.60;66.93
74958;BME280;63741;42.624;26.276;2023-05-07T03:12:47;99940.59;;;12.59;67.77
74958;BME280;63741;42.624;26.276;2023-05-07T03:15:16;99944.00;;;12.38;68.21
74958;BME280;63741;42.624;26.276;2023-05-07T03:17:43;99950.41;;;12.47;67.93
74958;BME280;63741;42.624;26.276;2023-05-07T03:20:10;99940.00;;;12.55;67.41
74958;BME280;63741;42.624;26.276;2023-05-07T03:22:39;99943.97;;;12.61;67.33
74958;BME280;63741;42.624;26.276;2023-05-07T03:25:07;99950.03;;;12.52;66.91
74958;BME280;63741;42.624;26.276;2023-05-07T03:27:34;99956.31;;;12.51;66.90
74958;BME280;63741;42.624;26.276;2023-05-07T03:30:01;99951.25;;;12.48;66.93
74958;BME280;63741;42.624;26.276;2023-05-07T03:32:28;99957.75;;;12.55;66.89
74958;BME280;63741;42.624;26.276;2023-05-07T03:34:55;99960.03;;;12.48;67.19
74958;BME280;63741;42.624;26.276;2023-05-07T03:37:23;99960.88;;;12.60;65.98
74958;BME280;63741;42.624;26.276;2023-05-07T03:39:50;99970.75;;;12.58;65.90
74958;BME280;63741;42.624;26.276;2023-05-07T03:42:17;99971.59;;;12.70;65.48
74958;BME280;63741;42.624;26.276;2023-05-07T03:44:47;99969.38;;;12.75;65.57
74958;BME280;63741;42.624;26.276;2023-05-07T03:47:14;99960.31;;;12.88;66.00
74958;BME280;63741;42.624;26.276;2023-05-07T03:49:42;99966.81;;;12.84;66.42
74958;BME280;63741;42.624;26.276;2023-05-07T03:52:09;99967.41;;;12.99;65.78
74958;BME280;63741;42.624;26.276;2023-05-07T03:54:36;99979.56;;;13.02;65.78
74958;BME280;63741;42.624;26.276;2023-05-07T03:57:03;99973.72;;;12.76;66.26
74958;BME280;63741;42.624;26.276;2023-05-07T03:59:30;99978.84;;;12.56;67.35
74958;BME280;63741;42.624;26.276;2023-05-07T04:01:57;99983.69;;;12.40;67.67
74958;BME280;63741;42.624;26.276;2023-05-07T04:04:27;99985.59;;;12.49;67.79
74958;BME280;63741;42.624;26.276;2023-05-07T04:07:00;99987.38;;;12.71;66.95
74958;BME280;63741;42.624;26.276;2023-05-07T04:09:27;99985.94;;;12.67;66.08
74958;BME280;63741;42.624;26.276;2023-05-07T04:11:55;99984.44;;;12.85;65.61
74958;BME280;63741;42.624;26.276;2023-05-07T04:14:22;99987.97;;;12.86;65.99
74958;BME280;63741;42.624;26.276;2023-05-07T04:16:49;99990.56;;;12.97;65.28
74958;BME280;63741;42.624;26.276;2023-05-07T04:19:16;99988.50;;;13.01;65.16
74958;BME280;63741;42.624;26.276;2023-05-07T04:21:45;99994.53;;;13.03;66.28
74958;BME280;63741;42.624;26.276;2023-05-07T04:24:12;99998.63;;;13.07;66.40
74958;BME280;63741;42.624;26.276;2023-05-07T04:26:39;99998.41;;;12.99;66.64
74958;BME280;63741;42.624;26.276;2023-05-07T04:29:07;100010.38;;;13.36;65.92
74958;BME280;63741;42.624;26.276;2023-05-07T04:31:34;100016.59;;;13.03;67.97
74958;BME280;63741;42.624;26.276;2023-05-07T04:34:01;100020.09;;;13.26;67.51
74958;BME280;63741;42.624;26.276;2023-05-07T04:36:30;100020.78;;;13.28;66.37
74958;BME280;63741;42.624;26.276;2023-05-07T04:39:04;100022.31;;;13.42;66.13
74958;BME280;63741;42.624;26.276;2023-05-07T04:41:31;100031.41;;;13.60;64.75
74958;BME280;63741;42.624;26.276;2023-05-07T04:43:59;100027.72;;;13.73;63.01
74958;BME280;63741;42.624;26.276;2023-05-07T04:46:30;100032.09;;;13.83;63.33
74958;BME280;63741;42.624;26.276;2023-05-07T04:48:57;100031.59;;;13.89;62.41
74958;BME280;63741;42.624;26.276;2023-05-07T04:51:24;100036.88;;;14.10;62.11
74958;BME280;63741;42.624;26.276;2023-05-07T04:53:51;100041.47;;;13.99;62.60
74958;BME280;63741;42.624;26.276;2023-05-07T04:56:18;100040.47;;;14.21;62.74
74958;BME280;63741;42.624;26.276;2023-05-07T04:58:46;100042.91;;;14.33;61.50
74958;BME280;63741;42.624;26.276;2023-05-07T05:01:17;100043.44;;;14.27;61.18
74958;BME280;63741;42.624;26.276;2023-05-07T05:03:44;100043.84;;;14.53;61.05
74958;BME280;63741;42.624;26.276;2023-05-07T05:06:11;100050.34;;;14.60;61.24
74958;BME280;63741;42.624;26.276;2023-05-07T05:08:38;100046.03;;;14.69;61.48
74958;BME280;63741;42.624;26.276;2023-05-07T05:11:05;100056.50;;;15.11;59.92
74958;BME280;63741;42.624;26.276;2023-05-07T05:13:34;100054.69;;;15.21;59.92
74958;BME280;63741;42.624;26.276;2023-05-07T05:16:07;100047.69;;;15.30;60.32
74958;BME280;63741;42.624;26.276;2023-05-07T05:18:34;100047.25;;;15.44;58.16
74958;BME280;63741;42.624;26.276;2023-05-07T05:21:02;100047.56;;;15.41;59.95
74958;BME280;63741;42.624;26.276;2023-05-07T05:23:30;100043.22;;;15.69;58.89
74958;BME280;63741;42.624;26.276;2023-05-07T05:25:58;100044.59;;;15.92;57.90
74958;BME280;63741;42.624;26.276;2023-05-07T05:28:28;100051.03;;;16.09;55.91
74958;BME280;63741;42.624;26.276;2023-05-07T05:30:56;100051.78;;;15.82;57.56
74958;BME280;63741;42.624;26.276;2023-05-07T05:33:25;100051.06;;;15.90;56.86
74958;BME280;63741;42.624;26.276;2023-05-07T05:35:53;100052.56;;;16.02;53.51
74958;BME280;63741;42.624;26.276;2023-05-07T05:38:20;100055.97;;;16.04;52.77
74958;BME280;63741;42.624;26.276;2023-05-07T05:40:47;100059.59;;;16.13;51.74
74958;BME280;63741;42.624;26.276;2023-05-07T05:43:15;100059.72;;;16.21;51.93
74958;BME280;63741;42.624;26.276;2023-05-07T05:45:42;100046.13;;;16.42;50.59
74958;BME280;63741;42.624;26.276;2023-05-07T05:48:09;100054.69;;;16.46;50.51
74958;BME280;63741;42.624;26.276;2023-05-07T05:50:37;100061.28;;;16.51;49.55
74958;BME280;63741;42.624;26.276;2023-05-07T05:53:06;100059.44;;;16.61;46.23
74958;BME280;63741;42.624;26.276;2023-05-07T05:55:33;100061.78;;;16.64;46.89
74958;BME280;63741;42.624;26.276;2023-05-07T05:58:00;100058.97;;;16.76;47.74
74958;BME280;63741;42.624;26.276;2023-05-07T06:00:29;100066.38;;;16.82;48.31
74958;BME280;63741;42.624;26.276;2023-05-07T06:03:01;100064.13;;;17.05;47.86
74958;BME280;63741;42.624;26.276;2023-05-07T06:05:29;100062.31;;;17.23;45.97
74958;BME280;63741;42.624;26.276;2023-05-07T06:07:56;100062.88;;;17.44;46.39
74958;BME280;63741;42.624;26.276;2023-05-07T06:10:25;100055.03;;;17.61;44.78
74958;BME280;63741;42.624;26.276;2023-05-07T06:12:54;100051.34;;;17.62;42.53
74958;BME280;63741;42.624;26.276;2023-05-07T06:15:21;100055.31;;;17.58;40.00
74958;BME280;63741;42.624;26.276;2023-05-07T06:17:49;100057.59;;;17.71;42.70
74958;BME280;63741;42.624;26.276;2023-05-07T06:20:16;100059.63;;;17.86;43.95
74958;BME280;63741;42.624;26.276;2023-05-07T06:22:44;100046.97;;;17.97;40.36
74958;BME280;63741;42.624;26.276;2023-05-07T06:25:12;100062.13;;;17.88;41.11
74958;BME280;63741;42.624;26.276;2023-05-07T06:27:41;100061.44;;;18.04;42.16
74958;BME280;63741;42.624;26.276;2023-05-07T06:30:08;100061.69;;;18.18;41.01
74958;BME280;63741;42.624;26.276;2023-05-07T06:32:36;100058.50;;;17.97;41.77
74958;BME280;63741;42.624;26.276;2023-05-07T06:35:03;100057.03;;;18.03;40.71
74958;BME280;63741;42.624;26.276;2023-05-07T06:37:34;100050.75;;;18.12;41.09
74958;BME280;63741;42.624;26.276;2023-05-07T06:40:05;100062.72;;;18.26;40.56
74958;BME280;63741;42.624;26.276;2023-05-07T06:42:36;100059.09;;;18.35;39.24
74958;BME280;63741;42.624;26.276;2023-05-07T06:45:21;100052.38;;;18.65;41.89
74958;BME280;63741;42.624;26.276;2023-05-07T06:47:48;100060.00;;;18.78;42.30
74958;BME280;63741;42.624;26.276;2023-05-07T06:50:15;100061.19;;;18.83;39.11
74958;BME280;63741;42.624;26.276;2023-05-07T06:52:44;100063.53;;;18.78;39.28
74958;BME280;63741;42.624;26.276;2023-05-07T06:55:11;100061.22;;;18.91;40.52
74958;BME280;63741;42.624;26.276;2023-05-07T06:57:38;100065.00;;;18.73;40.56
74958;BME280;63741;42.624;26.276;2023-05-07T07:00:05;100062.25;;;18.90;39.54
74958;BME280;63741;42.624;26.276;2023-05-07T07:02:44;100057.53;;;18.92;38.68
74958;BME280;63741;42.624;26.276;2023-05-07T07:05:17;100065.44;;;18.94;37.48
74958;BME280;63741;42.624;26.276;2023-05-07T07:07:44;100063.38;;;18.88;39.46
74958;BME280;63741;42.624;26.276;2023-05-07T07:10:10;100060.09;;;19.02;38.99
74958;BME280;63741;42.624;26.276;2023-05-07T07:12:38;100064.59;;;18.93;38.51
74958;BME280;63741;42.624;26.276;2023-05-07T07:15:05;100059.13;;;19.11;40.31
74958;BME280;63741;42.624;26.276;2023-05-07T07:17:33;100063.50;;;19.21;39.52
74958;BME280;63741;42.624;26.276;2023-05-07T07:20:00;100067.97;;;19.04;39.55
74958;BME280;63741;42.624;26.276;2023-05-07T07:22:28;100060.09;;;19.10;37.96
74958;BME280;63741;42.624;26.276;2023-05-07T07:24:55;100059.44;;;19.08;37.52
74958;BME280;63741;42.624;26.276;2023-05-07T07:27:23;100063.53;;;19.37;39.36
74958;BME280;63741;42.624;26.276;2023-05-07T07:29:50;100056.91;;;19.65;38.90
74958;BME280;63741;42.624;26.276;2023-05-07T07:32:18;100055.53;;;19.86;37.28
74958;BME280;63741;42.624;26.276;2023-05-07T07:34:45;100053.47;;;19.31;36.97
74958;BME280;63741;42.624;26.276;2023-05-07T07:37:12;100062.38;;;19.39;37.35
74958;BME280;63741;42.624;26.276;2023-05-07T07:39:40;100061.41;;;19.89;38.40
74958;BME280;63741;42.624;26.276;2023-05-07T07:42:08;100064.59;;;20.09;36.32
74958;BME280;63741;42.624;26.276;2023-05-07T07:44:35;100070.13;;;20.08;36.79
74958;BME280;63741;42.624;26.276;2023-05-07T07:47:06;100060.91;;;19.86;37.04
74958;BME280;63741;42.624;26.276;2023-05-07T07:49:34;100059.06;;;19.86;36.21
74958;BME280;63741;42.624;26.276;2023-05-07T07:52:04;100060.72;;;19.95;37.69
74958;BME280;63741;42.624;26.276;2023-05-07T07:54:34;100058.41;;;19.92;35.00
74958;BME280;63741;42.624;26.276;2023-05-07T07:57:02;100062.53;;;20.36;37.86
74958;BME280;63741;42.624;26.276;2023-05-07T07:59:31;100060.34;;;20.31;35.49
74958;BME280;63741;42.624;26.276;2023-05-07T08:01:58;100065.22;;;20.28;36.37
74958;BME280;63741;42.624;26.276;2023-05-07T08:04:27;100061.53;;;20.29;37.35
74958;BME280;63741;42.624;26.276;2023-05-07T08:06:56;100059.81;;;20.52;36.72
74958;BME280;63741;42.624;26.276;2023-05-07T08:09:23;100063.72;;;20.50;34.58
74958;BME280;63741;42.624;26.276;2023-05-07T08:11:53;100068.88;;;20.59;35.04
74958;BME280;63741;42.624;26.276;2023-05-07T08:14:22;100061.16;;;20.48;33.09
74958;BME280;63741;42.624;26.276;2023-05-07T08:16:50;100052.22;;;20.64;33.62
74958;BME280;63741;42.624;26.276;2023-05-07T08:19:17;100057.44;;;20.97;35.38
74958;BME280;63741;42.624;26.276;2023-05-07T08:21:44;100048.78;;;21.17;32.97
74958;BME280;63741;42.624;26.276;2023-05-07T08:24:15;100053.78;;;21.75;34.39
74958;BME280;63741;42.624;26.276;2023-05-07T08:26:43;100048.59;;;21.19;34.15
74958;BME280;63741;42.624;26.276;2023-05-07T08:29:10;100056.69;;;21.11;33.53
74958;BME280;63741;42.624;26.276;2023-05-07T08:31:37;100045.94;;;20.80;34.30
74958;BME280;63741;42.624;26.276;2023-05-07T08:34:06;100044.75;;;21.13;34.40
74958;BME280;63741;42.624;26.276;2023-05-07T08:36:39;100042.59;;;21.40;35.47
74958;BME280;63741;42.624;26.276;2023-05-07T08:39:10;100037.22;;;21.63;33.51
74958;BME280;63741;42.624;26.276;2023-05-07T08:41:37;100031.53;;;21.35;31.83
74958;BME280;63741;42.624;26.276;2023-05-07T08:44:06;100039.09;;;21.39;32.65
74958;BME280;63741;42.624;26.276;2023-05-07T08:46:39;100029.75;;;21.50;32.88
74958;BME280;63741;42.624;26.276;2023-05-07T08:49:07;100029.25;;;21.47;33.12
74958;BME280;63741;42.624;26.276;2023-05-07T08:51:36;100031.78;;;21.48;31.95
74958;BME280;63741;42.624;26.276;2023-05-07T08:54:06;100025.38;;;21.87;32.97
74958;BME280;63741;42.624;26.276;2023-05-07T08:56:34;100028.75;;;22.04;32.42
74958;BME280;63741;42.624;26.276;2023-05-07T08:59:01;100030.81;;;22.02;31.97
74958;BME280;63741;42.624;26.276;2023-05-07T09:01:30;100020.44;;;21.76;31.46
74958;BME280;63741;42.624;26.276;2023-05-07T09:04:00;100027.53;;;21.54;31.64
74958;BME280;63741;42.624;26.276;2023-05-07T09:06:29;100030.94;;;21.70;31.17
74958;BME280;63741;42.624;26.276;2023-05-07T09:08:58;100021.03;;;22.01;31.91
74958;BME280;63741;42.624;26.276;2023-05-07T09:11:29;100017.38;;;22.16;31.53
74958;BME280;63741;42.624;26.276;2023-05-07T09:13:59;100010.19;;;22.09;30.15
74958;BME280;63741;42.624;26.276;2023-05-07T09:16:34;100008.28;;;22.17;28.34
74958;BME280;63741;42.624;26.276;2023-05-07T09:19:06;100005.31;;;22.27;29.69
74958;BME280;63741;42.624;26.276;2023-05-07T09:21:36;100006.19;;;22.79;31.33
74958;BME280;63741;42.624;26.276;2023-05-07T09:24:06;100010.84;;;23.00;30.12
74958;BME280;63741;42.624;26.276;2023-05-07T09:26:38;100010.56;;;22.94;29.99
74958;BME280;63741;42.624;26.276;2023-05-07T09:29:07;100009.50;;;22.59;29.17
74958;BME280;63741;42.624;26.276;2023-05-07T09:31:37;99999.78;;;22.80;29.98
74958;BME280;63741;42.624;26.276;2023-05-07T09:34:10;99996.31;;;22.86;29.89
74958;BME280;63741;42.624;26.276;2023-05-07T09:36:47;99979.38;;;23.50;30.89
74958;BME280;63741;42.624;26.276;2023-05-07T09:39:23;99979.41;;;23.35;27.34
74958;BME280;63741;42.624;26.276;2023-05-07T09:41:50;99977.88;;;23.68;28.70
74958;BME280;63741;42.624;26.276;2023-05-07T09:44:34;99970.94;;;23.81;27.17
74958;BME280;63741;42.624;26.276;2023-05-07T09:47:07;99973.53;;;22.88;26.88
74958;BME280;63741;42.624;26.276;2023-05-07T09:49:42;99973.22;;;23.13;26.44
74958;BME280;63741;42.624;26.276;2023-05-07T09:52:19;99966.00;;;23.41;29.71
74958;BME280;63741;42.624;26.276;2023-05-07T09:54:51;99963.09;;;23.64;28.06
74958;BME280;63741;42.624;26.276;2023-05-07T09:57:22;99959.06;;;23.11;27.75
74958;BME280;63741;42.624;26.276;2023-05-07T09:59:59;99951.78;;;23.76;27.06
74958;BME280;63741;42.624;26.276;2023-05-07T10:02:35;99949.94;;;23.83;26.83
74958;BME280;63741;42.624;26.276;2023-05-07T10:05:03;99956.09;;;24.05;27.40
74958;BME280;63741;42.624;26.276;2023-05-07T10:07:36;99956.69;;;24.35;28.76
74958;BME280;63741;42.624;26.276;2023-05-07T10:10:08;99953.25;;;24.13;26.90
74958;BME280;63741;42.624;26.276;2023-05-07T10:12:40;99946.75;;;23.73;27.10
74958;BME280;63741;42.624;26.276;2023-05-07T10:15:14;99941.56;;;23.71;28.05
74958;BME280;63741;42.624;26.276;2023-05-07T10:17:45;99953.09;;;23.86;29.46
74958;BME280;63741;42.624;26.276;2023-05-07T10:20:14;99950.16;;;23.81;27.28
74958;BME280;63741;42.624;26.276;2023-05-07T10:22:45;99950.75;;;24.11;28.74
74958;BME280;63741;42.624;26.276;2023-05-07T10:25:21;99948.66;;;23.57;28.01
74958;BME280;63741;42.624;26.276;2023-05-07T10:27:51;99945.06;;;23.22;27.55
74958;BME280;63741;42.624;26.276;2023-05-07T10:33:34;99940.28;;;23.67;27.78
74958;BME280;63741;42.624;26.276;2023-05-07T10:36:03;99945.22;;;23.42;27.35
74958;BME280;63741;42.624;26.276;2023-05-07T10:38:32;99945.88;;;23.44;30.01
74958;BME280;63741;42.624;26.276;2023-05-07T10:41:01;99957.69;;;23.64;28.64
74958;BME280;63741;42.624;26.276;2023-05-07T10:43:44;99944.06;;;23.73;28.36
74958;BME280;63741;42.624;26.276;2023-05-07T10:46:23;99948.19;;;23.47;28.48
74958;BME280;63741;42.624;26.276;2023-05-07T10:49:14;99941.06;;;23.89;29.46
74958;BME280;63741;42.624;26.276;2023-05-07T10:52:14;99945.00;;;23.93;29.21
74958;BME280;63741;42.624;26.276;2023-05-07T10:57:44;99933.00;;;23.67;28.16
74958;BME280;63741;42.624;26.276;2023-05-07T11:05:38;99937.00;;;23.72;28.83
74958;BME280;63741;42.624;26.276;2023-05-07T11:08:15;99931.53;;;23.43;28.24
74958;BME280;63741;42.624;26.276;2023-05-07T11:10:56;99926.47;;;23.83;28.24
74958;BME280;63741;42.624;26.276;2023-05-07T11:13:45;99931.25;;;23.60;28.51
74958;BME280;63741;42.624;26.276;2023-05-07T11:16:33;99924.09;;;23.74;28.15
74958;BME280;63741;42.624;26.276;2023-05-07T11:19:11;99928.25;;;24.39;26.79
74958;BME280;63741;42.624;26.276;2023-05-07T11:21:43;99934.34;;;24.19;27.47
74958;BME280;63741;42.624;26.276;2023-05-07T11:24:39;99928.94;;;24.13;26.45
74958;BME280;63741;42.624;26.276;2023-05-07T11:27:08;99928.09;;;24.12;27.91
74958;BME280;63741;42.624;26.276;2023-05-07T11:29:35;99927.50;;;24.17;27.30
74958;BME280;63741;42.624;26.276;2023-05-07T11:32:07;99925.28;;;24.34;27.73
74958;BME280;63741;42.624;26.276;2023-05-07T11:34:42;99925.47;;;24.32;26.60
74958;BME280;63741;42.624;26.276;2023-05-07T11:37:09;99931.88;;;24.18;27.05
74958;BME280;63741;42.624;26.276;2023-05-07T11:39:42;99925.75;;;24.03;26.53
74958;BME280;63741;42.624;26.276;2023-05-07T11:42:29;99921.84;;;24.12;27.86
74958;BME280;63741;42.624;26.276;2023-05-07T11:44:57;99916.09;;;24.28;28.16
74958;BME280;63741;42.624;26.276;2023-05-07T11:47:24;99921.44;;;24.15;26.80
74958;BME280;63741;42.624;26.276;2023-05-07T11:49:54;99914.91;;;24.37;26.39
74958;BME280;63741;42.624;26.276;2023-05-07T11:52:23;99901.00;;;24.40;26.72
74958;BME280;63741;42.624;26.276;2023-05-07T11:54:56;99904.59;;;24.48;26.08
74958;BME280;63741;42.624;26.276;2023-05-07T11:57:24;99904.59;;;24.13;26.29
74958;BME280;63741;42.624;26.276;2023-05-07T11:59:55;99909.25;;;24.32;26.66
74958;BME280;63741;42.624;26.276;2023-05-07T12:02:25;99904.19;;;24.57;26.19
74958;BME280;63741;42.624;26.276;2023-05-07T12:04:53;99911.63;;;24.42;26.68
74958;BME280;63741;42.624;26.276;2023-05-07T12:07:21;99907.00;;;24.36;26.67
74958;BME280;63741;42.624;26.276;2023-05-07T12:09:48;99904.63;;;24.19;27.30
74958;BME280;63741;42.624;26.276;2023-05-07T12:12:15;99905.88;;;24.17;27.28
74958;BME280;63741;42.624;26.276;2023-05-07T12:14:45;99902.78;;;24.27;27.55
74958;BME280;63741;42.624;26.276;2023-05-07T12:17:14;99903.78;;;24.19;26.92
74958;BME280;63741;42.624;26.276;2023-05-07T12:19:42;99900.19;;;24.40;26.23
74958;BME280;63741;42.624;26.276;2023-05-07T12:22:10;99893.16;;;24.59;26.68
74958;BME280;63741;42.624;26.276;2023-05-07T12:24:48;99886.94;;;24.17;26.18
74958;BME280;63741;42.624;26.276;2023-05-07T12:27:16;99880.25;;;24.54;26.47
74958;BME280;63741;42.624;26.276;2023-05-07T12:29:48;99885.03;;;24.11;27.05
74958;BME280;63741;42.624;26.276;2023-05-07T12:32:17;99883.56;;;23.67;27.26
74958;BME280;63741;42.624;26.276;2023-05-07T12:34:45;99873.47;;;23.82;27.26
74958;BME280;63741;42.624;26.276;2023-05-07T12:37:15;99869.06;;;24.16;26.96
74958;BME280;63741;42.624;26.276;2023-05-07T12:39:46;99870.94;;;24.70;26.82
74958;BME280;63741;42.624;26.276;2023-05-07T12:42:20;99863.19;;;24.54;26.29
74958;BME280;63741;42.624;26.276;2023-05-07T12:44:52;99873.63;;;24.63;26.17
74958;BME280;63741;42.624;26.276;2023-05-07T12:47:20;99870.69;;;24.58;27.05
74958;BME280;63741;42.624;26.276;2023-05-07T12:49:47;99872.31;;;24.39;26.01
74958;BME280;63741;42.624;26.276;2023-05-07T12:52:14;99867.00;;;24.18;25.72
74958;BME280;63741;42.624;26.276;2023-05-07T12:54:41;99863.06;;;24.20;26.53
74958;BME280;63741;42.624;26.276;2023-05-07T12:57:09;99868.44;;;24.14;26.54
74958;BME280;63741;42.624;26.276;2023-05-07T12:59:38;99857.88;;;24.26;26.47
74958;BME280;63741;42.624;26.276;2023-05-07T13:02:07;99864.94;;;24.27;26.88
74958;BME280;63741;42.624;26.276;2023-05-07T13:04:36;99868.69;;;24.32;26.75
74958;BME280;63741;42.624;26.276;2023-05-07T13:07:03;99859.63;;;24.46;26.25
74958;BME280;63741;42.624;26.276;2023-05-07T13:09:31;99864.72;;;24.28;27.02